Time;durP1;ratioP1;P1;durP2;ratioP2;P2;SDS_P1;SDS_P2;PMS_P1;PMS_P2;Temp;Humidity;BMP_temperature;BMP_pressure;BME280_temperature;BME280_humidity;BME280_pressure;Samples;Min_cycle;Max_cycle;Signal;HPM_P1;HPM_P2
2023/05/07 00:00:37;;;;;;;5.18;3.67;;;20.80;82.50;;;;;;6125017;23;20006;-76
2023/05/07 00:03:03;;;;;;;5.57;4.18;;;20.80;82.70;;;;;;6125897;23;20432;-76
2023/05/07 00:05:28;;;;;;;6.65;4.32;;;20.80;82.90;;;;;;6126282;23;20002;-76
2023/05/07 00:07:54;;;;;;;7.07;4.45;;;20.80;83.00;;;;;;6126443;23;20448;-76
2023/05/07 00:10:20;;;;;;;5.30;4.47;;;20.80;82.90;;;;;;6125841;23;20010;-76
2023/05/07 00:12:45;;;;;;;5.45;4.25;;;20.80;83.20;;;;;;6099650;23;20336;-76
2023/05/07 00:15:12;;;;;;;5.80;4.15;;;20.70;83.10;;;;;;6128218;23;20006;-76
2023/05/07 00:17:37;;;;;;;5.22;4.20;;;20.70;83.20;;;;;;6127829;23;20013;-76
2023/05/07 00:20:05;;;;;;;6.57;4.38;;;20.70;83.20;;;;;;6128981;23;20365;-76
2023/05/07 00:22:32;;;;;;;6.03;4.90;;;20.60;83.30;;;;;;6127479;23;20080;-76
2023/05/07 00:24:58;;;;;;;5.03;4.15;;;20.60;83.40;;;;;;6126727;23;20009;-76
2023/05/07 00:27:24;;;;;;;6.03;4.07;;;20.60;83.50;;;;;;6124901;23;20369;-75
2023/05/07 00:29:50;;;;;;;8.10;4.88;;;20.60;83.60;;;;;;6127209;23;20041;-76
2023/05/07 00:32:15;;;;;;;7.78;4.28;;;20.60;83.70;;;;;;6126502;23;20338;-76
2023/05/07 00:34:41;;;;;;;5.65;4.22;;;20.60;83.90;;;;;;6127500;23;20010;-76
2023/05/07 00:37:11;;;;;;;5.65;4.20;;;20.50;83.90;;;;;;6125732;23;20041;-75
2023/05/07 00:39:37;;;;;;;5.20;3.85;;;20.50;83.90;;;;;;6127329;23;20024;-75
2023/05/07 00:42:03;;;;;;;6.88;4.35;;;20.50;84.20;;;;;;6100869;23;20473;-75
2023/05/07 00:44:29;;;;;;;5.47;4.50;;;20.50;84.20;;;;;;6127514;23;19998;-76
2023/05/07 00:47:01;;;;;;;5.38;4.43;;;20.40;84.20;;;;;;6127033;23;20009;-76
2023/05/07 00:49:38;;;;;;;8.07;4.68;;;20.40;84.40;;;;;;6127316;23;20039;-75
2023/05/07 00:52:05;;;;;;;5.93;4.50;;;20.40;84.40;;;;;;6126360;23;20491;-76
2023/05/07 00:54:31;;;;;;;7.25;4.65;;;20.40;84.50;;;;;;6127164;23;20005;-76
2023/05/07 00:56:57;;;;;;;6.68;5.05;;;20.40;84.60;;;;;;6126989;23;20069;-76
2023/05/07 00:59:23;;;;;;;6.45;5.05;;;20.40;84.60;;;;;;6127160;23;20029;-76
2023/05/07 01:01:49;;;;;;;7.53;5.32;;;20.40;84.60;;;;;;6125173;23;20026;-76
2023/05/07 01:04:15;;;;;;;6.13;4.60;;;20.40;84.70;;;;;;6125007;23;20040;-80
2023/05/07 01:06:41;;;;;;;6.93;4.78;;;20.30;84.80;;;;;;6124560;23;19998;-79
2023/05/07 01:09:07;;;;;;;6.05;4.93;;;20.40;85.00;;;;;;6124822;23;20042;-79
2023/05/07 01:11:33;;;;;;;5.28;4.13;;;20.30;85.50;;;;;;6124454;23;20678;-80
2023/05/07 01:13:59;;;;;;;8.25;5.05;;;20.30;85.10;;;;;;6126310;23;20085;-79
2023/05/07 01:16:25;;;;;;;7.57;5.30;;;20.30;85.10;;;;;;6126359;23;20074;-80
2023/05/07 01:18:51;;;;;;;6.22;4.63;;;20.30;85.10;;;;;;6100479;23;20085;-79
2023/05/07 01:21:18;;;;;;;6.82;5.30;;;20.30;85.00;;;;;;6125168;23;20425;-79
2023/05/07 01:23:46;;;;;;;8.55;5.25;;;20.30;84.80;;;;;;6099381;23;20006;-78
2023/05/07 01:26:12;;;;;;;6.90;4.88;;;20.20;84.90;;;;;;6125897;23;20365;-78
2023/05/07 01:28:37;;;;;;;6.72;5.00;;;20.20;84.80;;;;;;6126995;23;20005;-78
2023/05/07 01:31:05;;;;;;;6.53;4.68;;;20.20;84.80;;;;;;6125903;23;20009;-78
2023/05/07 01:33:34;;;;;;;6.88;5.28;;;20.10;84.80;;;;;;6126905;23;20006;-78
2023/05/07 01:36:03;;;;;;;8.07;5.43;;;20.10;84.80;;;;;;6126850;23;20029;-78
2023/05/07 01:38:29;;;;;;;7.97;5.40;;;20.00;84.60;;;;;;6127192;23;20405;-78
2023/05/07 01:40:56;;;;;;;7.45;5.10;;;20.00;84.70;;;;;;6125908;23;20002;-78
2023/05/07 01:43:21;;;;;;;13.57;6.00;;;19.90;84.80;;;;;;6126916;23;20049;-78
2023/05/07 01:45:48;;;;;;;8.20;6.15;;;19.90;84.90;;;;;;6100378;23;20005;-78
2023/05/07 01:48:15;;;;;;;7.88;5.75;;;19.90;85.00;;;;;;6127005;23;20002;-78
2023/05/07 01:50:42;;;;;;;7.78;6.15;;;19.80;85.00;;;;;;6126655;23;20038;-78
2023/05/07 01:53:08;;;;;;;8.63;6.57;;;19.80;85.00;;;;;;6127205;23;20321;-78
2023/05/07 01:55:34;;;;;;;9.93;7.45;;;19.70;85.00;;;;;;6126904;23;20058;-78
2023/05/07 01:57:59;;;;;;;8.57;7.22;;;19.70;85.00;;;;;;6126958;23;20009;-78
2023/05/07 02:00:25;;;;;;;9.57;7.18;;;19.70;85.10;;;;;;6100621;23;20471;-78
2023/05/07 02:02:52;;;;;;;10.80;8.43;;;19.60;85.10;;;;;;6126570;23;20333;-78
2023/05/07 02:05:18;;;;;;;11.73;8.35;;;19.60;85.10;;;;;;6126657;23;20385;-77
2023/05/07 02:07:43;;;;;;;7.78;6.88;;;19.60;85.40;;;;;;6126080;23;20049;-77
2023/05/07 02:10:09;;;;;;;10.18;7.20;;;19.50;85.50;;;;;;6126219;23;20373;-78
2023/05/07 02:12:35;;;;;;;11.35;7.75;;;19.50;85.50;;;;;;6126035;23;20037;-78
2023/05/07 02:15:01;;;;;;;8.50;7.60;;;19.50;85.50;;;;;;6126756;23;20029;-78
2023/05/07 02:17:27;;;;;;;10.40;8.10;;;19.50;85.60;;;;;;6126022;23;20432;-78
2023/05/07 02:19:52;;;;;;;13.82;8.25;;;19.50;85.70;;;;;;6126442;23;20002;-78
2023/05/07 02:22:18;;;;;;;10.52;9.05;;;19.50;85.70;;;;;;6100205;23;20007;-78
2023/05/07 02:24:44;;;;;;;11.88;8.80;;;19.50;86.30;;;;;;6099865;23;20014;-78
2023/05/07 02:27:10;;;;;;;11.98;8.23;;;19.50;85.90;;;;;;6124164;23;20032;-77
2023/05/07 02:29:35;;;;;;;10.73;7.93;;;19.50;86.10;;;;;;6126551;23;20443;-78
2023/05/07 02:32:01;;;;;;;10.57;8.90;;;19.50;86.30;;;;;;6126106;23;20451;-78
2023/05/07 02:34:27;;;;;;;10.50;9.00;;;19.50;86.50;;;;;;6126832;23;20001;-78
2023/05/07 02:36:52;;;;;;;10.27;8.45;;;19.50;86.30;;;;;;6126289;23;20013;-78
2023/05/07 02:39:18;;;;;;;13.25;8.88;;;19.60;86.30;;;;;;6126227;23;20017;-78
2023/05/07 02:41:43;;;;;;;9.73;8.25;;;19.50;86.40;;;;;;6125171;23;20005;-78
2023/05/07 02:44:09;;;;;;;13.10;9.48;;;19.50;86.50;;;;;;6100402;23;20026;-78
2023/05/07 02:46:35;;;;;;;13.18;9.38;;;19.60;86.40;;;;;;6125665;23;20013;-78
2023/05/07 02:49:00;;;;;;;11.45;9.60;;;19.60;86.80;;;;;;6125687;23;20329;-78
2023/05/07 02:51:26;;;;;;;13.77;10.23;;;19.60;86.00;;;;;;6125797;23;20537;-78
2023/05/07 02:53:52;;;;;;;13.23;9.50;;;19.60;85.70;;;;;;6126195;23;20409;-78
2023/05/07 02:56:18;;;;;;;12.13;9.35;;;19.60;85.70;;;;;;6126232;23;20006;-77
2023/05/07 02:58:44;;;;;;;11.98;9.25;;;19.60;85.90;;;;;;6125873;23;20033;-78
2023/05/07 03:01:09;;;;;;;12.98;9.15;;;19.60;86.10;;;;;;6125063;23;20005;-78
2023/05/07 03:03:36;;;;;;;11.95;9.43;;;19.60;86.00;;;;;;6126834;23;20006;-78
2023/05/07 03:06:02;;;;;;;12.85;9.73;;;19.60;85.70;;;;;;6099408;23;20016;-78
2023/05/07 03:08:28;;;;;;;12.13;8.77;;;19.60;85.50;;;;;;6123695;23;19998;-78
2023/05/07 03:10:53;;;;;;;11.25;9.82;;;19.60;85.40;;;;;;6123320;23;20100;-78
2023/05/07 03:13:19;;;;;;;12.35;9.77;;;19.60;85.20;;;;;;6126271;23;20080;-77
2023/05/07 03:15:45;;;;;;;12.85;9.23;;;19.60;85.20;;;;;;6126056;23;20081;-78
2023/05/07 03:18:10;;;;;;;12.63;10.15;;;19.60;85.40;;;;;;6126435;23;20370;-78
2023/05/07 03:20:36;;;;;;;11.45;8.90;;;19.60;85.30;;;;;;6125182;23;20065;-78
2023/05/07 03:23:02;;;;;;;14.23;10.18;;;19.50;85.30;;;;;;6123653;23;20626;-78
2023/05/07 03:25:29;;;;;;;12.23;10.07;;;19.50;85.30;;;;;;6123459;23;20009;-79
2023/05/07 03:27:56;;;;;;;13.48;10.27;;;19.40;85.10;;;;;;6123675;23;20017;-78
2023/05/07 03:30:21;;;;;;;13.55;9.98;;;19.50;85.30;;;;;;6123359;23;20010;-78
2023/05/07 03:32:47;;;;;;;12.57;10.35;;;19.40;85.10;;;;;;6124179;23;20017;-77
2023/05/07 03:35:13;;;;;;;13.43;10.90;;;19.40;84.90;;;;;;6126087;23;20002;-76
2023/05/07 03:37:39;;;;;;;13.27;10.32;;;19.40;85.10;;;;;;6124938;23;20046;-77
2023/05/07 03:40:05;;;;;;;10.98;9.48;;;19.40;85.40;;;;;;6125551;23;19998;-78
2023/05/07 03:42:31;;;;;;;13.70;9.93;;;19.40;85.30;;;;;;6126063;23;20056;-78
2023/05/07 03:44:57;;;;;;;10.32;9.07;;;19.40;85.60;;;;;;6126125;23;20001;-77
2023/05/07 03:47:22;;;;;;;11.40;9.35;;;19.30;85.70;;;;;;6125869;23;20376;-77
2023/05/07 03:49:50;;;;;;;13.35;10.50;;;19.30;85.70;;;;;;6127447;23;20077;-77
2023/05/07 03:52:15;;;;;;;11.40;9.32;;;19.40;85.70;;;;;;6127255;23;20013;-78
2023/05/07 03:54:41;;;;;;;11.52;9.57;;;19.30;85.60;;;;;;6127770;23;20009;-78
2023/05/07 03:57:07;;;;;;;10.98;9.10;;;19.30;85.90;;;;;;6127306;23;20077;-79
2023/05/07 03:59:32;;;;;;;11.43;9.07;;;19.30;85.90;;;;;;6127238;23;20001;-78
2023/05/07 04:01:58;;;;;;;12.57;9.82;;;19.30;85.70;;;;;;6127522;23;20002;-79
2023/05/07 04:04:24;;;;;;;11.20;9.90;;;19.30;85.70;;;;;;6128071;23;20017;-78
2023/05/07 04:06:49;;;;;;;11.38;9.40;;;19.30;85.90;;;;;;6127540;23;20417;-78
2023/05/07 04:09:15;;;;;;;10.10;8.88;;;19.30;85.90;;;;;;6127261;23;20052;-78
2023/05/07 04:11:41;;;;;;;10.38;9.27;;;19.30;85.80;;;;;;6127288;23;20306;-77
2023/05/07 04:14:06;;;;;;;11.75;9.15;;;19.20;85.90;;;;;;6127868;23;20491;-78
2023/05/07 04:16:32;;;;;;;11.10;9.85;;;19.20;85.90;;;;;;6127976;23;20002;-78
2023/05/07 04:18:58;;;;;;;16.17;9.85;;;19.20;85.90;;;;;;6127021;23;20099;-77
2023/05/07 04:21:23;;;;;;;11.07;9.25;;;19.20;85.90;;;;;;6127414;23;20006;-78
2023/05/07 04:23:49;;;;;;;9.20;8.18;;;19.20;86.00;;;;;;6127601;23;20073;-77
2023/05/07 04:26:15;;;;;;;11.82;9.55;;;19.20;86.30;;;;;;6127196;23;20006;-78
2023/05/07 04:28:41;;;;;;;11.48;9.65;;;19.10;86.10;;;;;;6127554;23;19994;-78
2023/05/07 04:31:07;;;;;;;11.25;9.02;;;19.20;86.10;;;;;;6127181;23;20029;-79
2023/05/07 04:33:33;;;;;;;15.10;9.93;;;19.10;86.10;;;;;;6127611;23;20696;-79
2023/05/07 04:36:02;;;;;;;10.63;9.50;;;19.10;86.40;;;;;;6126912;23;20013;-79
2023/05/07 04:38:30;;;;;;;13.23;10.40;;;19.10;86.50;;;;;;6127045;23;20018;-79
2023/05/07 04:40:56;;;;;;;12.18;10.38;;;19.20;86.40;;;;;;6100886;23;20134;-78
2023/05/07 04:43:22;;;;;;;13.35;10.60;;;19.20;86.30;;;;;;6126912;23;20002;-79
2023/05/07 04:45:50;;;;;;;11.10;9.52;;;19.20;86.00;;;;;;6127556;23;20286;-78
2023/05/07 04:48:18;;;;;;;13.02;9.77;;;19.20;86.00;;;;;;6127797;23;20030;-78
2023/05/07 04:50:46;;;;;;;9.85;8.77;;;19.30;86.00;;;;;;6101382;23;20020;-79
2023/05/07 04:53:12;;;;;;;12.75;9.00;;;19.30;85.80;;;;;;6126881;23;20013;-79
2023/05/07 04:55:38;;;;;;;11.43;9.80;;;19.30;85.80;;;;;;6127599;23;19998;-78
2023/05/07 04:58:04;;;;;;;11.68;9.02;;;19.30;85.90;;;;;;6127295;23;20013;-78
2023/05/07 05:00:30;;;;;;;10.43;8.70;;;19.40;86.00;;;;;;6126418;23;20006;-79
2023/05/07 05:02:56;;;;;;;13.05;8.88;;;19.40;85.80;;;;;;6124549;23;20024;-78
2023/05/07 05:05:21;;;;;;;12.40;9.20;;;19.40;85.50;;;;;;6124623;23;20002;-79
2023/05/07 05:07:47;;;;;;;12.30;9.00;;;19.50;85.70;;;;;;6125527;23;20428;-79
2023/05/07 05:10:13;;;;;;;10.88;9.05;;;19.40;85.60;;;;;;6126424;23;20143;-79
2023/05/07 05:12:38;;;;;;;9.70;8.50;;;19.40;85.80;;;;;;6126091;23;20432;-78
2023/05/07 05:15:06;;;;;;;10.10;8.82;;;19.50;86.00;;;;;;6100373;23;20006;-78
2023/05/07 05:17:34;;;;;;;11.65;9.60;;;19.50;86.00;;;;;;6127271;23;20429;-78
2023/05/07 05:19:59;;;;;;;10.77;8.95;;;19.50;86.00;;;;;;6125755;23;20029;-78
2023/05/07 05:22:25;;;;;;;13.18;9.02;;;19.60;86.20;;;;;;6127346;23;20413;-78
2023/05/07 05:24:51;;;;;;;11.38;9.23;;;19.60;86.10;;;;;;6126705;23;20025;-78
2023/05/07 05:27:16;;;;;;;11.48;9.07;;;19.60;86.30;;;;;;6127364;23;20002;-78
2023/05/07 05:29:42;;;;;;;9.38;8.05;;;19.60;86.50;;;;;;6126299;23;20005;-78
2023/05/07 05:32:08;;;;;;;9.75;8.57;;;19.60;86.60;;;;;;6126658;23;20479;-78
2023/05/07 05:34:33;;;;;;;12.18;9.43;;;19.60;86.80;;;;;;6126892;23;20356;-78
2023/05/07 05:36:59;;;;;;;10.40;9.30;;;19.60;86.80;;;;;;6127016;23;20010;-78
2023/05/07 05:39:25;;;;;;;12.23;9.20;;;19.70;86.90;;;;;;6125919;23;20014;-77
2023/05/07 05:41:50;;;;;;;10.20;8.20;;;19.70;87.10;;;;;;6126513;23;20057;-80
2023/05/07 05:44:16;;;;;;;9.38;8.27;;;19.80;87.30;;;;;;6126626;23;20053;-79
2023/05/07 05:46:42;;;;;;;10.48;8.25;;;19.90;87.50;;;;;;6127044;23;20002;-80
2023/05/07 05:49:08;;;;;;;11.32;8.43;;;19.90;87.50;;;;;;6125975;23;20076;-80
2023/05/07 05:51:34;;;;;;;8.60;7.63;;;20.00;87.50;;;;;;6100558;23;20030;-80
2023/05/07 05:53:59;;;;;;;9.18;7.57;;;20.00;87.50;;;;;;6126554;23;20010;-80
2023/05/07 05:56:25;;;;;;;10.05;8.85;;;20.00;87.10;;;;;;6126696;23;20038;-80
2023/05/07 05:58:51;;;;;;;8.13;6.88;;;20.00;87.10;;;;;;6100060;23;20006;-80
2023/05/07 06:01:18;;;;;;;7.90;6.63;;;20.00;86.60;;;;;;6126365;23;20013;-80
2023/05/07 06:03:44;;;;;;;8.00;7.07;;;20.10;86.10;;;;;;6125141;23;20073;-80
2023/05/07 06:06:09;;;;;;;8.52;6.47;;;20.10;85.90;;;;;;6126701;23;20113;-80
2023/05/07 06:08:35;;;;;;;10.50;6.28;;;20.20;85.70;;;;;;6099184;23;20010;-81
2023/05/07 06:11:02;;;;;;;7.85;5.68;;;20.20;85.20;;;;;;6125720;23;20037;-81
2023/05/07 06:13:27;;;;;;;6.28;5.50;;;20.30;84.80;;;;;;6125037;23;20012;-80
2023/05/07 06:15:53;;;;;;;5.57;4.72;;;20.40;84.40;;;;;;6123417;23;20006;-80
2023/05/07 06:18:19;;;;;;;5.05;4.32;;;20.40;84.00;;;;;;6124526;23;20006;-80
2023/05/07 06:20:44;;;;;;;5.43;3.83;;;20.50;83.60;;;;;;6126442;23;20028;-80
2023/05/07 06:23:10;;;;;;;4.68;3.45;;;20.50;83.20;;;;;;6125943;23;20439;-81
2023/05/07 06:25:36;;;;;;;4.55;3.22;;;20.60;83.00;;;;;;6126619;23;20052;-81
2023/05/07 06:28:01;;;;;;;4.05;3.50;;;20.60;82.60;;;;;;6125908;23;19998;-76
2023/05/07 06:30:27;;;;;;;5.40;3.63;;;20.70;82.20;;;;;;6125956;23;20002;-76
2023/05/07 06:32:52;;;;;;;5.30;3.40;;;20.70;81.70;;;;;;6125076;23;20010;-76
2023/05/07 06:35:18;;;;;;;3.13;2.83;;;20.80;81.60;;;;;;6125800;23;20033;-76
2023/05/07 06:37:44;;;;;;;3.70;2.53;;;20.90;81.10;;;;;;6124730;23;20040;-76
2023/05/07 06:40:11;;;;;;;3.50;2.75;;;20.90;81.00;;;;;;6125012;23;20013;-76
2023/05/07 06:42:37;;;;;;;3.25;2.47;;;21.00;80.60;;;;;;6125681;23;20025;-81
2023/05/07 06:45:03;;;;;;;4.70;2.58;;;21.00;80.20;;;;;;6124613;23;19998;-85
2023/05/07 06:47:29;;;;;;;2.80;2.38;;;21.10;80.00;;;;;;6126450;23;20057;-76
2023/05/07 06:49:54;;;;;;;2.40;2.20;;;21.10;79.60;;;;;;6125933;23;20057;-76
2023/05/07 06:52:20;;;;;;;2.55;2.08;;;21.20;79.30;;;;;;6100391;23;20006;-76
2023/05/07 06:54:46;;;;;;;2.70;2.28;;;21.20;79.10;;;;;;6100385;23;20066;-76
2023/05/07 06:57:11;;;;;;;3.45;2.33;;;21.30;79.20;;;;;;6126675;23;20009;-76
2023/05/07 06:59:37;;;;;;;2.35;2.08;;;21.30;79.00;;;;;;6125922;23;20009;-76
2023/05/07 07:02:06;;;;;;;6.65;2.30;;;21.40;78.80;;;;;;6126044;23;20061;-76
2023/05/07 07:04:32;;;;;;;4.13;2.50;;;21.40;78.30;;;;;;6125919;23;20013;-75
2023/05/07 07:06:57;;;;;;;3.25;2.33;;;21.50;78.00;;;;;;6126062;23;20002;-76
2023/05/07 07:09:23;;;;;;;4.88;2.90;;;21.50;77.90;;;;;;6125596;23;20002;-79
2023/05/07 07:11:49;;;;;;;4.38;2.15;;;21.60;77.00;;;;;;6126398;23;20006;-79
2023/05/07 07:14:14;;;;;;;3.38;2.17;;;21.60;77.40;;;;;;6125898;23;20088;-80
2023/05/07 07:16:40;;;;;;;3.80;2.10;;;21.60;77.20;;;;;;6122249;23;20009;-79
2023/05/07 07:19:06;;;;;;;3.90;2.67;;;21.70;77.10;;;;;;6123955;23;20049;-75
2023/05/07 07:21:32;;;;;;;5.07;3.20;;;21.80;76.50;;;;;;6123208;23;20416;-75
2023/05/07 07:23:57;;;;;;;3.28;2.38;;;21.80;76.50;;;;;;6127042;23;19998;-75
2023/05/07 07:26:23;;;;;;;4.03;2.90;;;21.90;76.40;;;;;;6128228;23;20004;-75
2023/05/07 07:28:49;;;;;;;4.60;2.40;;;21.90;76.20;;;;;;6128047;23;20010;-75
2023/05/07 07:31:15;;;;;;;3.47;2.42;;;22.00;76.50;;;;;;6126822;23;20001;-75
2023/05/07 07:33:40;;;;;;;3.20;2.40;;;22.00;76.30;;;;;;6126473;23;20081;-75
2023/05/07 07:36:07;;;;;;;3.15;2.40;;;22.10;76.40;;;;;;6125447;23;20002;-75
2023/05/07 07:38:33;;;;;;;4.63;2.47;;;22.20;76.40;;;;;;6127224;23;20041;-75
2023/05/07 07:40:58;;;;;;;4.07;2.55;;;22.30;76.40;;;;;;6126949;23;20049;-75
2023/05/07 07:43:24;;;;;;;2.25;1.80;;;22.30;76.20;;;;;;6128032;23;20006;-75
2023/05/07 07:45:50;;;;;;;2.70;1.92;;;22.40;75.70;;;;;;6127829;23;20006;-75
2023/05/07 07:48:15;;;;;;;2.50;1.80;;;22.50;73.00;;;;;;6128455;23;20013;-75
2023/05/07 07:50:41;;;;;;;2.45;1.73;;;22.50;71.90;;;;;;6128068;23;20009;-75
2023/05/07 07:53:07;;;;;;;2.10;1.50;;;22.60;70.30;;;;;;6128262;23;20029;-75
2023/05/07 07:55:37;;;;;;;2.50;1.60;;;22.70;70.20;;;;;;6127683;23;20341;-75
2023/05/07 07:58:03;;;;;;;5.25;1.88;;;22.80;70.70;;;;;;6127813;23;20077;-75
2023/05/07 08:00:28;;;;;;;2.40;2.10;;;22.90;70.20;;;;;;6127763;23;20372;-75
2023/05/07 08:02:54;;;;;;;4.57;2.13;;;22.90;71.10;;;;;;6102032;23;20373;-75
2023/05/07 08:05:20;;;;;;;3.10;2.13;;;22.90;71.00;;;;;;6127652;23;20074;-75
2023/05/07 08:07:46;;;;;;;2.47;1.60;;;23.00;70.80;;;;;;6128377;23;20005;-75
2023/05/07 08:10:12;;;;;;;2.85;1.80;;;23.00;71.50;;;;;;6102124;23;20085;-75
2023/05/07 08:12:37;;;;;;;2.00;1.75;;;23.10;71.40;;;;;;6127790;23;20028;-75
2023/05/07 08:15:03;;;;;;;2.08;1.88;;;23.30;71.10;;;;;;6127545;23;20133;-75
2023/05/07 08:17:29;;;;;;;1.83;1.60;;;23.40;71.10;;;;;;6127542;23;20002;-75
2023/05/07 08:19:55;;;;;;;4.50;2.00;;;23.40;71.40;;;;;;6127147;23;20013;-75
2023/05/07 08:22:21;;;;;;;3.25;2.00;;;23.50;71.30;;;;;;6127721;23;20006;-75
2023/05/07 08:24:47;;;;;;;3.15;2.50;;;23.60;71.30;;;;;;6127752;23;19998;-75
2023/05/07 08:27:13;;;;;;;2.63;1.95;;;23.60;71.40;;;;;;6101488;23;20006;-75
2023/05/07 08:29:38;;;;;;;3.90;2.20;;;23.70;71.40;;;;;;6127615;23;20006;-75
2023/05/07 08:32:04;;;;;;;2.63;1.73;;;23.80;71.40;;;;;;6127105;23;20090;-75
2023/05/07 08:34:30;;;;;;;2.50;1.90;;;23.80;71.60;;;;;;6127397;23;20002;-75
2023/05/07 08:36:56;;;;;;;2.15;1.95;;;23.90;72.20;;;;;;6127143;23;20065;-75
2023/05/07 08:39:22;;;;;;;3.60;2.15;;;24.00;72.50;;;;;;6127040;23;20366;-75
2023/05/07 08:41:51;;;;;;;3.60;2.45;;;24.10;72.40;;;;;;6127116;23;20025;-75
2023/05/07 08:44:20;;;;;;;3.13;2.00;;;24.20;72.60;;;;;;6128159;23;20006;-75
2023/05/07 08:46:47;;;;;;;3.45;2.10;;;24.30;72.60;;;;;;6126598;23;20061;-75
2023/05/07 08:49:14;;;;;;;2.40;1.98;;;24.40;72.80;;;;;;6127025;23;20468;-75
2023/05/07 08:51:41;;;;;;;2.38;1.90;;;24.40;72.70;;;;;;6101208;23;20037;-75
2023/05/07 08:54:08;;;;;;;2.85;2.00;;;24.50;72.30;;;;;;6126982;23;20077;-75
2023/05/07 08:56:34;;;;;;;3.10;2.30;;;24.60;71.30;;;;;;6123069;23;20009;-74
2023/05/07 08:59:00;;;;;;;5.03;2.35;;;24.60;71.10;;;;;;6127011;23;20002;-75
2023/05/07 09:01:26;;;;;;;2.20;1.98;;;24.70;70.90;;;;;;6099289;23;20452;-75
2023/05/07 09:03:52;;;;;;;2.15;1.85;;;24.70;70.00;;;;;;6124891;23;20036;-75
2023/05/07 09:06:19;;;;;;;2.60;2.30;;;24.70;69.80;;;;;;6123758;23;20089;-75
2023/05/07 09:08:50;;;;;;;3.35;1.98;;;24.80;69.80;;;;;;6125581;23;20033;-75
2023/05/07 09:11:19;;;;;;;3.50;2.25;;;24.80;69.90;;;;;;6125785;23;20021;-75
2023/05/07 09:13:44;;;;;;;4.03;2.10;;;24.90;69.10;;;;;;6125735;23;20009;-75
2023/05/07 09:16:14;;;;;;;4.45;2.22;;;25.00;68.00;;;;;;6126604;23;20005;-75
2023/05/07 09:18:43;;;;;;;2.17;1.92;;;25.10;67.90;;;;;;6099888;23;20377;-75
2023/05/07 09:21:15;;;;;;;1.73;1.63;;;25.00;67.40;;;;;;6125690;23;20006;-75
2023/05/07 09:23:41;;;;;;;4.03;1.77;;;25.10;66.80;;;;;;6125567;23;20006;-79
2023/05/07 09:26:11;;;;;;;1.73;1.63;;;25.10;65.20;;;;;;6124704;23;20309;-79
2023/05/07 09:28:40;;;;;;;5.00;1.30;;;25.20;64.20;;;;;;6125428;23;20009;-79
2023/05/07 09:31:05;;;;;;;2.38;1.63;;;25.10;64.60;;;;;;6126667;23;20006;-81
2023/05/07 09:33:31;;;;;;;1.80;1.50;;;25.20;64.50;;;;;;6125505;23;20013;-79
2023/05/07 09:35:57;;;;;;;10.55;3.30;;;25.20;64.70;;;;;;6125458;23;20010;-79
2023/05/07 09:38:23;;;;;;;7.00;2.20;;;25.20;64.20;;;;;;6124034;23;20045;-78
2023/05/07 09:41:08;;;;;;;2.85;1.65;;;25.20;64.10;;;;;;6126021;23;20016;-76
2023/05/07 09:43:35;;;;;;;4.57;1.60;;;25.20;63.30;;;;;;6126412;23;20009;-76
2023/05/07 09:46:25;;;;;;;1.65;1.55;;;25.10;63.80;;;;;;6126231;23;20006;-76
2023/05/07 09:48:53;;;;;;;3.83;1.97;;;25.10;63.90;;;;;;6125591;23;20013;-76
2023/05/07 09:51:26;;;;;;;3.20;1.92;;;25.10;64.20;;;;;;6126431;23;20440;-76
2023/05/07 09:53:52;;;;;;;2.85;1.70;;;25.10;63.70;;;;;;6125203;23;20006;-76
2023/05/07 09:56:19;;;;;;;2.80;1.80;;;25.10;63.40;;;;;;6125790;23;20015;-76
2023/05/07 09:58:46;;;;;;;1.92;1.77;;;25.10;63.60;;;;;;6123799;23;20006;-76
2023/05/07 10:01:13;;;;;;;2.75;1.63;;;25.10;63.10;;;;;;6125647;23;20006;-77
2023/05/07 10:03:41;;;;;;;2.10;1.60;;;25.20;63.10;;;;;;6125448;23;20002;-76
2023/05/07 10:06:09;;;;;;;6.10;1.88;;;25.20;63.20;;;;;;6125566;23;20002;-77
2023/05/07 10:08:36;;;;;;;2.25;1.80;;;25.30;63.40;;;;;;6124691;23;20069;-77
2023/05/07 10:11:06;;;;;;;2.45;1.80;;;25.40;63.50;;;;;;6126158;23;20028;-77
2023/05/07 10:13:35;;;;;;;1.95;1.38;;;25.50;63.30;;;;;;6126056;23;20017;-77
2023/05/07 10:16:03;;;;;;;4.13;1.52;;;25.70;62.60;;;;;;6126094;23;20006;-77
2023/05/07 10:18:33;;;;;;;1.73;1.40;;;25.80;61.70;;;;;;6125823;23;20030;-77
2023/05/07 10:21:20;;;;;;;3.13;1.40;;;25.90;61.90;;;;;;6126444;23;20009;-77
2023/05/07 10:23:50;;;;;;;2.22;1.58;;;26.00;62.20;;;;;;6126238;23;20002;-77
2023/05/07 10:26:20;;;;;;;3.00;1.38;;;26.20;61.90;;;;;;6126309;23;20037;-80
2023/05/07 10:28:53;;;;;;;2.17;1.48;;;26.40;61.80;;;;;;6125641;23;20332;-80
2023/05/07 10:31:31;;;;;;;1.95;1.67;;;26.60;61.50;;;;;;6126717;23;20002;-80
2023/05/07 10:33:59;;;;;;;4.25;2.05;;;26.80;60.50;;;;;;6125914;23;20002;-80
2023/05/07 10:36:26;;;;;;;2.17;1.52;;;26.90;60.60;;;;;;6126278;23;20005;-80
2023/05/07 10:38:52;;;;;;;1.80;1.40;;;27.00;60.20;;;;;;6125508;23;20013;-80
2023/05/07 10:41:18;;;;;;;1.67;1.58;;;27.10;60.30;;;;;;6125627;23;20006;-79
2023/05/07 10:43:45;;;;;;;2.13;1.70;;;27.30;60.20;;;;;;6120210;23;19998;-80
2023/05/07 10:46:18;;;;;;;1.83;1.50;;;27.40;59.60;;;;;;6125162;23;20009;-80
2023/05/07 10:49:02;;;;;;;2.00;1.80;;;27.40;59.20;;;;;;6124038;23;20002;-80
2023/05/07 10:51:30;;;;;;;4.45;2.15;;;27.40;57.40;;;;;;6125686;23;20002;-80
2023/05/07 10:54:11;;;;;;;1.80;1.60;;;27.50;57.30;;;;;;6125210;23;20009;-80
2023/05/07 10:56:42;;;;;;;1.98;1.15;;;27.60;57.20;;;;;;6125715;23;20005;-80
2023/05/07 10:59:20;;;;;;;1.70;1.50;;;27.70;57.50;;;;;;6124633;23;20006;-80
2023/05/07 11:02:06;;;;;;;2.53;1.70;;;27.80;55.60;;;;;;6125574;23;20032;-80
2023/05/07 11:04:34;;;;;;;2.17;1.63;;;27.90;54.40;;;;;;6124783;23;20325;-80
2023/05/07 11:07:06;;;;;;;2.20;1.80;;;27.80;54.40;;;;;;6125215;23;20002;-80
2023/05/07 11:09:53;;;;;;;2.78;1.20;;;27.90;54.30;;;;;;6124348;23;20009;-80
2023/05/07 11:12:43;;;;;;;1.98;1.15;;;28.00;52.30;;;;;;6125078;23;20006;-80
2023/05/07 11:15:10;;;;;;;1.30;1.17;;;28.10;50.50;;;;;;6125567;23;20013;-80
2023/05/07 11:17:53;;;;;;;1.27;1.10;;;28.20;51.80;;;;;;6125329;23;20325;-80
2023/05/07 11:20:19;;;;;;;2.05;1.45;;;28.40;51.90;;;;;;6125637;23;20005;-80
2023/05/07 11:22:45;;;;;;;1.85;1.48;;;28.50;51.70;;;;;;6123712;23;20113;-81
2023/05/07 11:25:16;;;;;;;2.78;1.60;;;28.60;51.70;;;;;;6125260;23;20034;-81
2023/05/07 11:27:43;;;;;;;2.30;1.45;;;28.80;51.60;;;;;;6123278;23;20017;-82
2023/05/07 11:30:09;;;;;;;1.52;1.10;;;28.90;51.70;;;;;;6124731;23;20029;-81
2023/05/07 11:32:35;;;;;;;2.00;1.67;;;29.20;51.90;;;;;;6124656;23;20688;-82
2023/05/07 11:35:01;;;;;;;2.08;1.52;;;29.40;50.60;;;;;;6124954;23;20077;-82
2023/05/07 11:37:29;;;;;;;1.40;1.30;;;29.50;50.50;;;;;;6124997;23;20014;-82
2023/05/07 11:40:07;;;;;;;2.97;1.85;;;29.50;50.30;;;;;;6097626;23;20006;-82
2023/05/07 11:42:34;;;;;;;2.03;1.20;;;29.50;49.40;;;;;;6125032;23;20002;-82
2023/05/07 11:45:01;;;;;;;3.13;1.52;;;29.60;49.90;;;;;;6125105;23;20025;-82
2023/05/07 11:47:29;;;;;;;1.27;1.17;;;29.80;49.30;;;;;;6125419;23;20500;-83
2023/05/07 11:49:55;;;;;;;1.70;1.33;;;30.20;49.30;;;;;;6124916;23;20002;-83
2023/05/07 11:52:23;;;;;;;1.38;1.27;;;30.50;48.80;;;;;;6124743;23;19998;-83
2023/05/07 11:54:54;;;;;;;2.22;1.40;;;30.70;47.80;;;;;;6125287;23;20314;-83
2023/05/07 11:57:20;;;;;;;3.67;1.83;;;31.00;47.40;;;;;;6125962;23;20002;-83
2023/05/07 11:59:49;;;;;;;1.90;1.58;;;31.30;47.20;;;;;;6124092;23;20069;-82
2023/05/07 12:02:15;;;;;;;1.60;1.40;;;31.50;46.40;;;;;;6125584;23;20483;-83
2023/05/07 12:04:41;;;;;;;3.35;1.35;;;31.70;45.90;;;;;;6099510;23;20101;-82
2023/05/07 12:07:14;;;;;;;3.55;1.40;;;31.90;46.30;;;;;;6125185;23;20006;-83
2023/05/07 12:09:41;;;;;;;2.05;1.80;;;32.10;44.80;;;;;;6126283;23;20006;-83
2023/05/07 12:12:07;;;;;;;1.73;1.30;;;32.20;44.70;;;;;;6127093;23;20001;-83
2023/05/07 12:14:37;;;;;;;2.10;1.42;;;32.20;44.40;;;;;;6126707;23;20006;-82
2023/05/07 12:17:04;;;;;;;2.90;1.52;;;32.10;43.90;;;;;;6127473;23;20006;-83
2023/05/07 12:19:30;;;;;;;2.35;1.83;;;31.90;44.70;;;;;;6126776;23;20324;-82
2023/05/07 12:21:57;;;;;;;2.08;1.60;;;31.80;44.30;;;;;;6126217;23;20033;-83
2023/05/07 12:24:23;;;;;;;2.45;1.33;;;31.60;44.40;;;;;;6125394;23;20009;-82
2023/05/07 12:26:49;;;;;;;2.53;1.55;;;31.50;44.90;;;;;;6126759;23;20006;-82
2023/05/07 12:29:15;;;;;;;2.13;1.65;;;31.40;45.20;;;;;;6125967;23;20037;-82
2023/05/07 12:31:42;;;;;;;24.55;1.80;;;31.20;45.20;;;;;;6126609;23;20380;-82
2023/05/07 12:34:07;;;;;;;1.60;1.50;;;31.10;45.60;;;;;;6126673;23;20031;-82
2023/05/07 12:36:38;;;;;;;1.77;1.33;;;31.10;45.50;;;;;;6100750;23;20093;-82
2023/05/07 12:39:11;;;;;;;1.42;1.20;;;31.00;44.80;;;;;;6125213;23;20006;-82
2023/05/07 12:42:00;;;;;;;2.55;1.30;;;31.20;45.10;;;;;;6126709;23;20013;-85